createdAt,value
2022-08-05T00:00:12.786Z,0.00
2022-08-05T00:01:20.774Z,0.00
2022-08-05T00:02:12.877Z,0.00
2022-08-05T00:03:15.629Z,0.00
2022-08-05T00:04:13.511Z,0.00
2022-08-05T00:06:02.011Z,0.00
2022-08-05T00:06:29.071Z,0.00
2022-08-05T00:07:58.729Z,0.00
2022-08-05T00:08:33.074Z,0.00
2022-08-05T00:09:15.791Z,0.00
2022-08-05T00:10:12.821Z,0.00
2022-08-05T00:11:20.683Z,0.00
2022-08-05T00:12:13.299Z,0.00
2022-08-05T00:13:18.736Z,0.00
2022-08-05T00:14:17.042Z,0.00
2022-08-05T00:15:56.412Z,0.00
2022-08-05T00:16:12.948Z,0.00
2022-08-05T00:17:28.670Z,0.00
2022-08-05T00:18:21.632Z,0.00
2022-08-05T00:19:12.981Z,0.00
2022-08-05T00:20:12.695Z,0.00
2022-08-05T00:21:14.546Z,0.00
2022-08-05T00:22:12.943Z,0.00
2022-08-05T00:23:13.292Z,0.00
2022-08-05T00:24:19.341Z,0.00
2022-08-05T00:25:12.767Z,0.00
2022-08-05T00:26:12.447Z,0.00
2022-08-05T00:27:16.665Z,0.00
2022-08-05T00:28:12.707Z,0.00
2022-08-05T00:29:12.389Z,0.00
2022-08-05T00:30:12.440Z,0.00
2022-08-05T00:31:12.384Z,0.00
2022-08-05T00:32:15.260Z,0.00
2022-08-05T00:34:41.894Z,0.00
2022-08-05T00:35:03.688Z,0.00
2022-08-05T00:35:12.334Z,0.00
2022-08-05T00:36:15.056Z,0.00
2022-08-05T00:37:14.304Z,0.00
2022-08-05T00:38:12.312Z,0.00
2022-08-05T00:39:13.837Z,0.00
2022-08-05T00:40:12.274Z,0.00
2022-08-05T00:41:12.264Z,0.00
2022-08-05T00:42:12.290Z,0.00
2022-08-05T00:43:12.259Z,0.00
2022-08-05T00:44:12.279Z,0.00
2022-08-05T00:45:13.590Z,0.00
2022-08-05T00:46:12.225Z,0.00
2022-08-05T00:47:12.205Z,0.00
2022-08-05T00:48:12.237Z,0.00
2022-08-05T00:49:14.037Z,0.00
2022-08-05T00:50:12.160Z,0.00
2022-08-05T00:51:50.318Z,0.00
2022-08-05T00:52:12.233Z,0.00
2022-08-05T00:54:00.440Z,0.00
2022-08-05T00:54:12.182Z,0.00
2022-08-05T00:55:12.116Z,0.00
2022-08-05T00:56:12.147Z,0.00
2022-08-05T00:57:12.082Z,0.00
2022-08-05T00:58:12.118Z,0.00
2022-08-05T00:59:12.064Z,0.00
2022-08-05T01:00:13.255Z,0.00
2022-08-05T01:01:12.083Z,0.00
2022-08-05T01:02:12.041Z,0.00
2022-08-05T01:03:22.295Z,0.00
2022-08-05T01:04:14.194Z,0.00
2022-08-05T01:05:12.006Z,0.00
2022-08-05T01:06:15.325Z,0.00
2022-08-05T01:07:13.603Z,0.00
2022-08-05T01:08:42.059Z,0.00
2022-08-05T01:09:11.987Z,0.00
2022-08-05T01:10:11.946Z,0.00
2022-08-05T01:11:11.928Z,0.00
2022-08-05T01:12:18.393Z,0.00
2022-08-05T01:13:13.296Z,0.00
2022-08-05T01:14:11.901Z,0.00
2022-08-05T01:15:34.958Z,0.00
2022-08-05T01:16:12.917Z,0.00
2022-08-05T01:17:11.862Z,0.00
2022-08-05T01:18:11.918Z,0.00
2022-08-05T01:19:11.848Z,0.00
2022-08-05T01:20:12.358Z,0.00
2022-08-05T01:21:12.060Z,0.00
2022-08-05T01:22:18.667Z,0.00
2022-08-05T01:23:14.333Z,0.00
2022-08-05T01:24:14.356Z,0.00
2022-08-05T01:25:11.814Z,0.00
2022-08-05T01:26:11.779Z,0.00
2022-08-05T01:27:17.707Z,0.00
2022-08-05T01:28:11.892Z,0.00
2022-08-05T01:29:11.755Z,0.00
2022-08-05T01:30:12.406Z,0.00
2022-08-05T01:31:13.077Z,0.00
2022-08-05T01:32:18.330Z,0.00
2022-08-05T01:33:11.914Z,0.00
2022-08-05T01:34:11.932Z,0.00
2022-08-05T01:35:12.099Z,0.00
2022-08-05T01:36:12.843Z,0.00
2022-08-05T01:37:24.459Z,0.00
2022-08-05T01:38:14.583Z,0.00
2022-08-05T01:39:11.721Z,0.00
2022-08-05T01:40:11.618Z,0.00
2022-08-05T01:41:11.936Z,0.00
2022-08-05T01:42:11.947Z,0.00
2022-08-05T01:43:22.203Z,0.00
2022-08-05T01:44:11.766Z,0.00
2022-08-05T01:45:11.582Z,0.00
2022-08-05T01:46:16.397Z,0.00
2022-08-05T01:47:11.557Z,0.00
2022-08-05T01:48:11.569Z,0.00
2022-08-05T01:49:12.146Z,0.00
2022-08-05T01:50:15.283Z,0.00
2022-08-05T01:51:12.474Z,0.00
2022-08-05T01:52:12.403Z,0.00
2022-08-05T01:53:11.484Z,0.00
2022-08-05T01:54:11.492Z,0.00
2022-08-05T01:55:11.461Z,0.00
2022-08-05T01:56:11.439Z,0.00
2022-08-05T01:58:12.659Z,0.00
2022-08-05T01:58:29.356Z,0.00
2022-08-05T01:59:11.400Z,0.00
2022-08-05T02:00:11.880Z,0.00
2022-08-05T02:01:11.368Z,0.00
2022-08-05T02:02:11.384Z,0.00
2022-08-05T02:03:24.066Z,0.00
2022-08-05T02:04:11.376Z,0.00
2022-08-05T02:05:11.706Z,0.00
2022-08-05T02:06:33.328Z,0.00
2022-08-05T02:07:11.333Z,0.00
2022-08-05T02:08:11.432Z,0.00
2022-08-05T02:09:11.309Z,0.00
2022-08-05T02:10:11.332Z,0.00
2022-08-05T02:11:11.766Z,0.00
2022-08-05T02:12:11.352Z,0.00
2022-08-05T02:13:15.732Z,0.00
2022-08-05T02:14:12.639Z,0.00
2022-08-05T02:15:12.439Z,0.00
2022-08-05T02:16:16.291Z,0.00
2022-08-05T02:17:29.752Z,0.00
2022-08-05T02:18:35.157Z,0.00
2022-08-05T02:19:11.253Z,0.00
2022-08-05T02:20:11.220Z,0.00
2022-08-05T02:21:14.706Z,0.00
2022-08-05T02:22:11.162Z,0.00
2022-08-05T02:23:11.165Z,0.00
2022-08-05T02:24:11.177Z,0.00
2022-08-05T02:25:12.541Z,0.00
2022-08-05T02:26:11.746Z,0.00
2022-08-05T02:27:11.108Z,0.00
2022-08-05T02:28:11.077Z,0.00
2022-08-05T02:29:21.545Z,0.00
2022-08-05T02:30:11.212Z,0.00
2022-08-05T02:31:14.648Z,0.00
2022-08-05T02:32:11.031Z,0.00
2022-08-05T02:33:11.027Z,0.00
2022-08-05T02:34:11.010Z,0.00
2022-08-05T02:35:14.214Z,0.00
2022-08-05T02:36:13.376Z,0.00
2022-08-05T02:37:10.965Z,0.00
2022-08-05T02:38:10.967Z,0.00
2022-08-05T02:39:10.997Z,0.00
2022-08-05T02:40:10.935Z,0.00
2022-08-05T02:41:17.040Z,0.00
2022-08-05T02:42:10.986Z,0.00
2022-08-05T02:43:10.933Z,0.00
2022-08-05T02:44:11.246Z,0.00
2022-08-05T02:45:10.943Z,0.00
2022-08-05T02:46:10.873Z,0.00
2022-08-05T02:47:10.880Z,0.00
2022-08-05T02:48:12.601Z,0.00
2022-08-05T02:49:11.221Z,0.00
2022-08-05T02:50:10.828Z,0.00
2022-08-05T02:51:10.822Z,0.00
2022-08-05T02:52:11.652Z,0.00
2022-08-05T02:53:11.678Z,0.00
2022-08-05T02:54:10.887Z,0.00
2022-08-05T02:55:12.275Z,0.00
2022-08-05T02:56:10.763Z,0.00
2022-08-05T02:58:11.119Z,0.00
2022-08-05T02:58:17.434Z,0.00
2022-08-05T02:59:10.734Z,0.00
2022-08-05T03:00:10.784Z,0.00
2022-08-05T03:01:10.788Z,0.00
2022-08-05T03:02:11.535Z,0.00
2022-08-05T03:03:10.675Z,0.00
2022-08-05T03:04:14.138Z,0.00
2022-08-05T03:05:10.693Z,0.00
2022-08-05T03:06:53.645Z,0.00
2022-08-05T03:07:24.601Z,0.00
2022-08-05T03:08:11.082Z,0.00
2022-08-05T03:09:10.610Z,0.00
2022-08-05T03:10:10.618Z,0.00
2022-08-05T03:11:56.337Z,0.00
2022-08-05T03:12:10.629Z,0.00
2022-08-05T03:13:52.004Z,0.00
2022-08-05T03:14:46.054Z,0.00
2022-08-05T03:15:41.798Z,4.00
2022-08-05T03:16:41.797Z,4.00
2022-08-05T03:17:44.875Z,4.00
2022-08-05T03:18:42.048Z,0.00
2022-08-05T03:19:42.337Z,4.00
2022-08-05T03:20:44.645Z,4.00
2022-08-05T03:21:48.794Z,4.00
2022-08-05T03:22:44.245Z,4.00
2022-08-05T03:23:41.760Z,4.00
2022-08-05T03:24:41.732Z,4.00
2022-08-05T03:26:04.725Z,4.00
2022-08-05T03:26:41.686Z,8.00
2022-08-05T03:28:00.023Z,12.00
2022-08-05T03:28:41.672Z,12.00
2022-08-05T03:29:45.681Z,16.00
2022-08-05T03:30:42.292Z,20.00
2022-08-05T03:31:56.591Z,24.00
2022-08-05T03:32:41.614Z,24.00
2022-08-05T03:33:49.377Z,32.00
2022-08-05T03:34:41.590Z,36.00
2022-08-05T03:35:42.031Z,36.00
2022-08-05T03:36:41.568Z,36.00
2022-08-05T03:37:46.097Z,36.00
2022-08-05T03:38:41.578Z,36.00
2022-08-05T03:39:57.741Z,36.00
2022-08-05T03:40:41.712Z,40.00
2022-08-05T03:41:46.673Z,44.00
2022-08-05T03:42:41.800Z,44.00
2022-08-05T03:44:09.024Z,48.00
2022-08-05T03:44:42.251Z,56.00
2022-08-05T03:45:58.365Z,76.00
2022-08-05T03:46:41.456Z,100.00
2022-08-05T03:47:42.018Z,112.00
2022-08-05T03:48:41.466Z,132.00
2022-08-05T03:49:51.499Z,148.00
2022-08-05T03:50:41.413Z,168.00
2022-08-05T03:52:48.332Z,176.00
2022-08-05T03:56:04.809Z,188.00
2022-08-05T03:56:17.318Z,212.00
2022-08-05T03:56:35.162Z,212.00
2022-08-05T03:57:41.552Z,216.00
2022-08-05T03:58:28.890Z,236.00
2022-08-05T03:59:24.625Z,264.00
2022-08-05T04:00:24.388Z,284.00
2022-08-05T04:01:24.561Z,296.00
2022-08-05T04:02:37.876Z,300.00
2022-08-05T04:03:28.917Z,308.00
2022-08-05T04:04:26.496Z,348.00
2022-08-05T04:05:24.283Z,412.00
2022-08-05T04:06:24.345Z,488.00
2022-08-05T04:07:25.467Z,560.00
2022-08-05T04:08:35.011Z,620.00
2022-08-05T04:09:26.364Z,688.00
2022-08-05T04:10:24.247Z,768.00
2022-08-05T04:11:24.215Z,872.00
2022-08-05T04:12:24.802Z,996.00
2022-08-05T04:13:24.214Z,1136.00
2022-08-05T04:14:30.035Z,1276.00
2022-08-05T04:15:24.523Z,1420.00
2022-08-05T04:16:25.494Z,1528.00
2022-08-05T04:17:24.329Z,1592.00
2022-08-05T04:18:25.501Z,1636.00
2022-08-05T04:19:24.147Z,1712.00
2022-08-05T04:20:24.158Z,1828.00
2022-08-05T04:22:09.469Z,1936.00
2022-08-05T04:22:24.119Z,2016.00
2022-08-05T04:23:57.221Z,2160.00
2022-08-05T04:24:24.114Z,2348.00
2022-08-05T04:25:56.577Z,2424.00
2022-08-05T04:26:24.773Z,2380.00
2022-08-05T04:27:33.059Z,2312.00
2022-08-05T04:28:30.562Z,2208.00
2022-08-05T04:29:24.016Z,2184.00
2022-08-05T04:30:24.109Z,2260.00
2022-08-05T04:31:24.062Z,2356.00
2022-08-05T04:32:30.859Z,2324.00
2022-08-05T04:34:17.713Z,2328.00
2022-08-05T04:34:32.733Z,2392.00
2022-08-05T04:35:23.979Z,2424.00
2022-08-05T04:36:45.729Z,2484.00
2022-08-05T04:37:31.566Z,2596.00
2022-08-05T04:38:39.429Z,2716.00
2022-08-05T04:39:23.998Z,2800.00
2022-08-05T04:40:23.902Z,2792.00
2022-08-05T04:41:34.070Z,2736.00
2022-08-05T04:42:25.470Z,2720.00
2022-08-05T04:43:23.887Z,2772.00
2022-08-05T04:44:29.874Z,2832.00
2022-08-05T04:45:47.802Z,2884.00
2022-08-05T04:46:27.783Z,2940.00
2022-08-05T04:47:24.046Z,2956.00
2022-08-05T04:48:27.364Z,2932.00
2022-08-05T04:49:24.760Z,2880.00
2022-08-05T04:50:34.315Z,2828.00
2022-08-05T04:51:23.789Z,2764.00
2022-08-05T04:52:23.780Z,2672.00
2022-08-05T04:53:23.757Z,2596.00
2022-08-05T04:54:23.781Z,2536.00
2022-08-05T04:56:15.147Z,2492.00
2022-08-05T04:56:37.551Z,2464.00
2022-08-05T04:57:24.039Z,2464.00
2022-08-05T04:58:23.730Z,2520.00
2022-08-05T04:59:38.349Z,2608.00
2022-08-05T05:00:23.932Z,2732.00
2022-08-05T05:02:06.302Z,2876.00
2022-08-05T05:02:37.433Z,3036.00
2022-08-05T05:03:23.659Z,3148.00
2022-08-05T05:04:23.625Z,3188.00
2022-08-05T05:05:28.142Z,3192.00
2022-08-05T05:06:40.636Z,3176.00
2022-08-05T05:07:23.962Z,3152.00
2022-08-05T05:08:30.152Z,3148.00
2022-08-05T05:09:23.616Z,3136.00
2022-08-05T05:10:23.561Z,3120.00
2022-08-05T05:11:23.547Z,3084.00
2022-08-05T05:12:23.604Z,3044.00
2022-08-05T05:13:24.371Z,2992.00
2022-08-05T05:14:28.080Z,2968.00
2022-08-05T05:15:56.632Z,2932.00
2022-08-05T05:16:23.504Z,2884.00
2022-08-05T05:17:24.877Z,2840.00
2022-08-05T05:18:31.626Z,2796.00
2022-08-05T05:19:27.279Z,2752.00
2022-08-05T05:20:23.856Z,2784.00
2022-08-05T05:21:23.453Z,2928.00
2022-08-05T05:22:26.450Z,3048.00
2022-08-05T05:23:23.434Z,3084.00
2022-08-05T05:24:23.439Z,3080.00
2022-08-05T05:25:32.606Z,3096.00
2022-08-05T05:26:28.805Z,3176.00
2022-08-05T05:27:23.654Z,3304.00
2022-08-05T05:28:23.359Z,3388.00
2022-08-05T05:30:03.604Z,3448.00
2022-08-05T05:30:31.397Z,3576.00
2022-08-05T05:31:35.744Z,3760.00
2022-08-05T05:32:22.314Z,3904.00
2022-08-05T05:33:23.728Z,4016.00
2022-08-05T05:34:27.051Z,4104.00
2022-08-05T05:35:23.350Z,4148.00
2022-08-05T05:36:23.428Z,4168.00
2022-08-05T05:37:23.518Z,4216.00
2022-08-05T05:38:27.494Z,4364.00
2022-08-05T05:39:23.326Z,4496.00
2022-08-05T05:40:23.224Z,4620.00
2022-08-05T05:41:23.747Z,4712.00
2022-08-05T05:42:23.225Z,4732.00
2022-08-05T05:43:57.246Z,4708.00
2022-08-05T05:44:36.443Z,4736.00
2022-08-05T05:45:23.182Z,4868.00
2022-08-05T05:46:23.157Z,5132.00
2022-08-05T05:47:23.248Z,5560.00
2022-08-05T05:48:27.414Z,6048.00
2022-08-05T05:49:23.441Z,6496.00
2022-08-05T05:50:23.105Z,6792.00
2022-08-05T05:51:23.508Z,6948.00
2022-08-05T05:52:28.592Z,7056.00
2022-08-05T05:53:23.379Z,7104.00
2022-08-05T05:54:49.639Z,7032.00
2022-08-05T05:55:23.091Z,6860.00
2022-08-05T05:56:31.374Z,6764.00
2022-08-05T05:57:23.114Z,6876.00
2022-08-05T05:58:23.028Z,7120.00
2022-08-05T05:59:23.107Z,7324.00
2022-08-05T06:00:27.787Z,7456.00
2022-08-05T06:01:23.396Z,7536.00
2022-08-05T06:02:32.814Z,7580.00
2022-08-05T06:03:54.144Z,7628.00
2022-08-05T06:04:22.993Z,7632.00
2022-08-05T06:05:23.069Z,7516.00
2022-08-05T06:06:22.961Z,7292.00
2022-08-05T06:07:23.192Z,7124.00
2022-08-05T06:08:31.672Z,7060.00
2022-08-05T06:09:24.771Z,6948.00
2022-08-05T06:10:22.889Z,6696.00
2022-08-05T06:11:22.928Z,6624.00
2022-08-05T06:12:22.905Z,6560.00
2022-08-05T06:13:22.871Z,6576.00
2022-08-05T06:14:22.912Z,6788.00
2022-08-05T06:15:24.251Z,7176.00
2022-08-05T06:16:28.358Z,7440.00
2022-08-05T06:17:24.661Z,7560.00
2022-08-05T06:18:30.783Z,7536.00
2022-08-05T06:19:34.942Z,7568.00
2022-08-05T06:20:22.790Z,7616.00
2022-08-05T06:21:22.799Z,7492.00
2022-08-05T06:22:22.764Z,7288.00
2022-08-05T06:23:22.793Z,7056.00
2022-08-05T06:24:25.909Z,6740.00
2022-08-05T06:25:25.179Z,6316.00
2022-08-05T06:26:24.955Z,6020.00
2022-08-05T06:28:12.138Z,5844.00
2022-08-05T06:28:28.550Z,5788.00
2022-08-05T06:29:45.454Z,5772.00
2022-08-05T06:30:22.724Z,5800.00
2022-08-05T06:31:22.705Z,5804.00
2022-08-05T06:32:25.874Z,5732.00
2022-08-05T06:33:33.346Z,5532.00
2022-08-05T06:34:22.663Z,5320.00
2022-08-05T06:36:07.720Z,5096.00
2022-08-05T06:36:25.974Z,4804.00
2022-08-05T06:37:55.969Z,4480.00
2022-08-05T06:38:36.134Z,4156.00
2022-08-05T06:39:26.919Z,3832.00
2022-08-05T06:40:27.971Z,3548.00
2022-08-05T06:41:22.565Z,3416.00
2022-08-05T06:42:22.564Z,3520.00
2022-08-05T06:43:57.249Z,3524.00
2022-08-05T06:44:22.621Z,3308.00
2022-08-05T06:45:44.413Z,3320.00
2022-08-05T06:46:22.673Z,3376.00
2022-08-05T06:48:11.506Z,3392.00
2022-08-05T06:48:58.530Z,3396.00
2022-08-05T06:50:00.495Z,3364.00
2022-08-05T06:50:22.467Z,3400.00
2022-08-05T06:51:29.340Z,3484.00
2022-08-05T06:52:37.391Z,3616.00
2022-08-05T06:53:27.959Z,3792.00
2022-08-05T06:54:25.794Z,4064.00
2022-08-05T06:55:22.390Z,4316.00
2022-08-05T06:56:26.112Z,4428.00
2022-08-05T06:57:57.403Z,4516.00
2022-08-05T06:58:34.899Z,4668.00
2022-08-05T06:59:22.388Z,5040.00
2022-08-05T07:00:24.973Z,5768.00
2022-08-05T07:01:22.683Z,6356.00
2022-08-05T07:02:22.748Z,6224.00
2022-08-05T07:03:22.320Z,5940.00
2022-08-05T07:04:22.330Z,5740.00
2022-08-05T07:05:31.922Z,5656.00
2022-08-05T07:06:22.272Z,5052.00
2022-08-05T07:07:35.229Z,4528.00
2022-08-05T07:08:22.287Z,4488.00
2022-08-05T07:09:24.938Z,4668.00
2022-08-05T07:10:22.307Z,4780.00
2022-08-05T07:11:25.212Z,4992.00
2022-08-05T07:13:57.597Z,6020.00
2022-08-05T07:14:39.791Z,6888.00
2022-08-05T07:16:01.762Z,7192.00
2022-08-05T07:18:00.458Z,7552.00
2022-08-05T07:18:14.630Z,8364.00
2022-08-05T07:18:39.708Z,9100.00
2022-08-05T07:20:39.812Z,9528.00
2022-08-05T07:22:00.585Z,9624.00
2022-08-05T07:22:42.104Z,9840.00
2022-08-05T07:23:40.513Z,9940.00
2022-08-05T07:24:43.766Z,9644.00
2022-08-05T07:25:54.728Z,9132.00
2022-08-05T07:26:39.658Z,8748.00
2022-08-05T07:27:56.441Z,8788.00
2022-08-05T07:28:39.600Z,8652.00
2022-08-05T07:30:24.366Z,8996.00
2022-08-05T07:30:40.056Z,9480.00
2022-08-05T07:31:53.934Z,9560.00
2022-08-05T07:32:39.618Z,9668.00
2022-08-05T07:33:39.627Z,9472.00
2022-08-05T07:34:42.298Z,9080.00
2022-08-05T07:35:39.844Z,8816.00
2022-08-05T07:36:39.961Z,8940.00
2022-08-05T07:37:39.870Z,8980.00
2022-08-05T07:38:42.803Z,8976.00
2022-08-05T07:40:27.111Z,9440.00
2022-08-05T07:40:39.630Z,10444.00
2022-08-05T07:42:14.782Z,11728.00
2022-08-05T07:42:39.502Z,12116.00
2022-08-05T07:43:39.502Z,11524.00
2022-08-05T07:44:39.497Z,10920.00
2022-08-05T07:45:57.201Z,10640.00
2022-08-05T07:46:39.412Z,9804.00
2022-08-05T07:47:42.265Z,8996.00
2022-08-05T07:49:01.549Z,8496.00
2022-08-05T07:49:43.542Z,8504.00
2022-08-05T07:50:39.448Z,9140.00
2022-08-05T07:51:41.110Z,10392.00
2022-08-05T07:52:39.340Z,10892.00
2022-08-05T07:53:50.448Z,11432.00
2022-08-05T07:54:41.376Z,12184.00
2022-08-05T07:55:44.195Z,13124.00
2022-08-05T07:57:13.690Z,13960.00
2022-08-05T07:57:56.230Z,13992.00
2022-08-05T07:58:57.593Z,14144.00
2022-08-05T07:59:40.963Z,14408.00
2022-08-05T08:00:39.284Z,14444.00
2022-08-05T08:01:41.653Z,14828.00
2022-08-05T08:03:14.907Z,15568.00
2022-08-05T08:03:44.341Z,15932.00
2022-08-05T08:04:39.345Z,16252.00
2022-08-05T08:05:39.578Z,16516.00
2022-08-05T08:06:39.228Z,16880.00
2022-08-05T08:08:00.100Z,17408.00
2022-08-05T08:08:39.198Z,17600.00
2022-08-05T08:09:39.173Z,17600.00
2022-08-05T08:10:39.215Z,17632.00
2022-08-05T08:11:49.452Z,17792.00
2022-08-05T08:12:49.556Z,17920.00
2022-08-05T08:13:49.258Z,17472.00
2022-08-05T08:14:39.135Z,17280.00
2022-08-05T08:16:50.351Z,17280.00
2022-08-05T08:16:56.251Z,17280.00
2022-08-05T08:17:39.104Z,17248.00
2022-08-05T08:18:39.128Z,17012.00
2022-08-05T08:20:44.540Z,16472.00
2022-08-05T08:21:09.852Z,15184.00
2022-08-05T08:21:39.012Z,14648.00
2022-08-05T08:22:39.018Z,14524.00
2022-08-05T08:24:02.683Z,14364.00
2022-08-05T08:24:51.002Z,14456.00
2022-08-05T08:26:00.373Z,13872.00
2022-08-05T08:26:39.023Z,12176.00
2022-08-05T08:27:45.265Z,11112.00
2022-08-05T08:28:58.997Z,10708.00
2022-08-05T08:30:05.880Z,10596.00
2022-08-05T08:30:47.952Z,10548.00
2022-08-05T08:31:38.975Z,10048.00
2022-08-05T08:32:39.835Z,10296.00
2022-08-05T08:33:38.864Z,10908.00
2022-08-05T08:34:39.080Z,12452.00
2022-08-05T08:35:41.554Z,12872.00
2022-08-05T08:36:47.728Z,12724.00
2022-08-05T08:37:38.854Z,14164.00
2022-08-05T08:38:38.894Z,15932.00
2022-08-05T08:39:49.472Z,17032.00
2022-08-05T08:40:38.797Z,17204.00
2022-08-05T08:41:52.412Z,17344.00
2022-08-05T08:42:50.361Z,16876.00
2022-08-05T08:45:19.858Z,15820.00
2022-08-05T08:45:30.800Z,14904.00
2022-08-05T08:45:38.730Z,15128.00
2022-08-05T08:46:38.708Z,16668.00
2022-08-05T08:48:07.648Z,17344.00
2022-08-05T08:49:03.287Z,17004.00
2022-08-05T08:50:13.096Z,16044.00
2022-08-05T08:51:04.108Z,14996.00
2022-08-05T08:52:13.940Z,14760.00
2022-08-05T08:52:38.665Z,15000.00
2022-08-05T08:53:40.251Z,15004.00
2022-08-05T08:54:38.652Z,15380.00
2022-08-05T08:56:03.653Z,15944.00
2022-08-05T08:56:39.648Z,15832.00
2022-08-05T08:57:48.251Z,15236.00
2022-08-05T08:58:44.632Z,15016.00
2022-08-05T08:59:38.576Z,14136.00
2022-08-05T09:00:38.607Z,12164.00
2022-08-05T09:01:42.600Z,9584.00
2022-08-05T09:02:38.582Z,8352.00
2022-08-05T09:03:40.327Z,7448.00
2022-08-05T09:04:58.280Z,7092.00
2022-08-05T09:06:07.826Z,7616.00
2022-08-05T09:06:38.568Z,7932.00
2022-08-05T09:07:53.530Z,8492.00
2022-08-05T09:08:40.424Z,8488.00
2022-08-05T09:09:38.454Z,7800.00
2022-08-05T09:10:38.452Z,7852.00
2022-08-05T09:11:52.169Z,8732.00
2022-08-05T09:12:38.460Z,9376.00
2022-08-05T09:14:09.588Z,10220.00
2022-08-05T09:15:06.338Z,11748.00
2022-08-05T09:15:38.389Z,13108.00
2022-08-05T09:16:38.371Z,12568.00
2022-08-05T09:17:42.576Z,12464.00
2022-08-05T09:18:42.809Z,12704.00
2022-08-05T09:20:01.748Z,13328.00
2022-08-05T09:20:38.480Z,15248.00
2022-08-05T09:22:22.972Z,15848.00
2022-08-05T09:22:38.632Z,15788.00
2022-08-05T09:23:43.704Z,16592.00
2022-08-05T09:24:38.297Z,16368.00
2022-08-05T09:26:01.629Z,14392.00
2022-08-05T09:26:38.317Z,12780.00
2022-08-05T09:28:03.983Z,12280.00
2022-08-05T09:28:38.260Z,12784.00
2022-08-05T09:29:47.736Z,13624.00
2022-08-05T09:30:38.300Z,13244.00
2022-08-05T09:32:42.352Z,13484.00
2022-08-05T09:32:52.785Z,12084.00
2022-08-05T09:33:38.239Z,10808.00
2022-08-05T09:34:38.171Z,9352.00
2022-08-05T09:35:38.205Z,9352.00
2022-08-05T09:36:38.183Z,10584.00
2022-08-05T09:38:12.105Z,12348.00
2022-08-05T09:38:38.160Z,13376.00
2022-08-05T09:39:44.796Z,12948.00
2022-08-05T09:40:38.121Z,11972.00
2022-08-05T09:41:39.011Z,11872.00
2022-08-05T09:42:38.085Z,12452.00
2022-08-05T09:43:40.578Z,14328.00
2022-08-05T09:44:38.106Z,14420.00
2022-08-05T09:46:07.339Z,14716.00
2022-08-05T09:46:38.058Z,16732.00
2022-08-05T09:47:55.431Z,16300.00
2022-08-05T09:48:38.043Z,16272.00
2022-08-05T09:49:40.500Z,16388.00
2022-08-05T09:50:44.545Z,16740.00
2022-08-05T09:51:37.981Z,13572.00
2022-08-05T09:52:44.812Z,12404.00
2022-08-05T09:53:54.656Z,10572.00
2022-08-05T09:54:37.980Z,10088.00
2022-08-05T09:55:56.562Z,7312.00
2022-08-05T09:56:38.044Z,7848.00
2022-08-05T09:57:39.537Z,8944.00
2022-08-05T09:58:37.909Z,11256.00
2022-08-05T09:59:38.656Z,14416.00
2022-08-05T10:00:37.927Z,12524.00
2022-08-05T10:01:39.586Z,11004.00
2022-08-05T10:02:38.564Z,10232.00
2022-08-05T10:03:56.992Z,12008.00
2022-08-05T10:04:38.313Z,13132.00
2022-08-05T10:05:38.818Z,12092.00
2022-08-05T10:06:37.811Z,11688.00
2022-08-05T10:08:10.594Z,13296.00
2022-08-05T10:08:42.516Z,16256.00
2022-08-05T10:09:44.883Z,17600.00
2022-08-05T10:10:37.815Z,18048.00
2022-08-05T10:11:38.087Z,18016.00
2022-08-05T10:12:38.051Z,17792.00
2022-08-05T10:13:45.800Z,17336.00
2022-08-05T10:14:37.758Z,17352.00
2022-08-05T10:15:37.771Z,17792.00
2022-08-05T10:16:52.223Z,18240.00
2022-08-05T10:17:40.724Z,18112.00
2022-08-05T10:18:37.681Z,18144.00
2022-08-05T10:20:03.533Z,17760.00
2022-08-05T10:20:37.735Z,16264.00
2022-08-05T10:21:40.331Z,14432.00
2022-08-05T10:22:38.039Z,12836.00
2022-08-05T10:23:55.829Z,11640.00
2022-08-05T10:24:39.814Z,11352.00
2022-08-05T10:25:37.586Z,12516.00
2022-08-05T10:26:37.648Z,13024.00
2022-08-05T10:28:13.381Z,14204.00
2022-08-05T10:28:37.695Z,15400.00
2022-08-05T10:30:06.403Z,16372.00
2022-08-05T10:32:50.554Z,16992.00
2022-08-05T10:33:05.261Z,16428.00
2022-08-05T10:33:14.746Z,17664.00
2022-08-05T10:34:14.338Z,17420.00
2022-08-05T10:35:14.330Z,17984.00
2022-08-05T10:36:14.430Z,18720.00
2022-08-05T10:37:14.338Z,19168.00
2022-08-05T10:38:14.401Z,19616.00
2022-08-05T10:39:15.264Z,20128.00
2022-08-05T10:40:18.530Z,20992.00
2022-08-05T10:41:14.334Z,21088.00
2022-08-05T10:42:14.370Z,22112.00
2022-08-05T10:43:14.281Z,23232.00
2022-08-05T10:44:14.340Z,23552.00
2022-08-05T10:45:23.711Z,23936.00
2022-08-05T10:46:14.220Z,23744.00
2022-08-05T10:47:26.517Z,22944.00
2022-08-05T10:48:31.822Z,22080.00
2022-08-05T10:49:16.902Z,21408.00
2022-08-05T10:50:28.047Z,21024.00
2022-08-05T10:51:22.474Z,20448.00
2022-08-05T10:52:14.158Z,19680.00
2022-08-05T10:53:14.171Z,17440.00
2022-08-05T10:54:28.668Z,17824.00
2022-08-05T10:55:16.008Z,18976.00
2022-08-05T10:56:21.250Z,22208.00
2022-08-05T10:57:14.096Z,22368.00
2022-08-05T10:58:15.561Z,21216.00
2022-08-05T11:00:03.480Z,18208.00
2022-08-05T11:00:19.105Z,20000.00
2022-08-05T11:01:15.116Z,19424.00
2022-08-05T11:02:37.948Z,18112.00
2022-08-05T11:03:24.529Z,17792.00
2022-08-05T11:04:14.012Z,13596.00
2022-08-05T11:05:18.171Z,11164.00
2022-08-05T11:06:17.898Z,11896.00
2022-08-05T11:07:13.975Z,13808.00
2022-08-05T11:08:36.746Z,15060.00
2022-08-05T11:09:16.829Z,16588.00
2022-08-05T11:10:14.000Z,15560.00
2022-08-05T11:11:16.833Z,14568.00
2022-08-05T11:12:13.918Z,13928.00
2022-08-05T11:13:14.086Z,13624.00
2022-08-05T11:14:14.214Z,13816.00
2022-08-05T11:15:20.302Z,11956.00
2022-08-05T11:16:13.951Z,11404.00
2022-08-05T11:17:57.056Z,13716.00
2022-08-05T11:18:14.089Z,18368.00
2022-08-05T11:20:10.082Z,18560.00
2022-08-05T11:20:18.546Z,16540.00
2022-08-05T11:21:13.811Z,14960.00
2022-08-05T11:22:13.964Z,14652.00
2022-08-05T11:23:13.822Z,15588.00
2022-08-05T11:24:14.748Z,17056.00
2022-08-05T11:26:03.332Z,18272.00
2022-08-05T11:26:13.844Z,20128.00
2022-08-05T11:27:13.764Z,20512.00
2022-08-05T11:28:17.113Z,17856.00
2022-08-05T11:29:14.423Z,16668.00
2022-08-05T11:30:13.749Z,17536.00
2022-08-05T11:31:19.545Z,15220.00
2022-08-05T11:32:13.770Z,13320.00
2022-08-05T11:33:21.240Z,11668.00
2022-08-05T11:34:14.869Z,12232.00
2022-08-05T11:35:15.521Z,13220.00
2022-08-05T11:36:13.774Z,16144.00
2022-08-05T11:38:29.692Z,18848.00
2022-08-05T11:38:45.992Z,20384.00
2022-08-05T11:39:13.784Z,21248.00
2022-08-05T11:40:14.295Z,20416.00
2022-08-05T11:41:58.035Z,18464.00
2022-08-05T11:42:18.388Z,18208.00
2022-08-05T11:43:13.598Z,21120.00
2022-08-05T11:44:40.463Z,27936.00
2022-08-05T11:45:14.329Z,30080.00
2022-08-05T11:46:27.075Z,28224.00
2022-08-05T11:47:17.384Z,27392.00
2022-08-05T11:48:13.576Z,28320.00
2022-08-05T11:49:13.486Z,29856.00
2022-08-05T11:50:15.155Z,29728.00
2022-08-05T11:51:13.529Z,28736.00
2022-08-05T11:52:13.471Z,26016.00
2022-08-05T11:53:13.476Z,23680.00
2022-08-05T11:54:13.925Z,21376.00
2022-08-05T11:55:13.508Z,19776.00
2022-08-05T11:56:13.588Z,21408.00
2022-08-05T11:57:25.259Z,19392.00
2022-08-05T11:58:13.555Z,18496.00
2022-08-05T11:59:13.858Z,16928.00
2022-08-05T12:00:13.414Z,16512.00
2022-08-05T12:01:13.359Z,16980.00
2022-08-05T12:02:30.740Z,18496.00
2022-08-05T12:03:13.458Z,20608.00
2022-08-05T12:04:13.681Z,19936.00
2022-08-05T12:05:18.279Z,18880.00
2022-08-05T12:06:13.384Z,13260.00
2022-08-05T12:07:13.292Z,11152.00
2022-08-05T12:08:18.060Z,13016.00
2022-08-05T12:09:19.982Z,17252.00
2022-08-05T12:10:13.492Z,11996.00
2022-08-05T12:11:17.290Z,13588.00
2022-08-05T12:12:13.246Z,11560.00
2022-08-05T12:13:17.352Z,11004.00
2022-08-05T12:14:13.324Z,9244.00
2022-08-05T12:15:16.711Z,9360.00
2022-08-05T12:16:14.999Z,9072.00
2022-08-05T12:17:36.152Z,8916.00
2022-08-05T12:18:15.311Z,8660.00
2022-08-05T12:20:26.324Z,8588.00
2022-08-05T12:20:33.745Z,8420.00
2022-08-05T12:21:13.303Z,8348.00
2022-08-05T12:22:13.155Z,8360.00
2022-08-05T12:23:13.131Z,8472.00